< < Back
Terminal Aerodrome Forecast


Current Version              Previous Versions:   1  2  3  4  5  6  7  8  9  

Terminal Aerodrome Forecast

636
FTUS42 KJAX 152000 AAB
TAFJAX
TAF AMD
KJAX 152025Z 1520/1618 22015G25KT P6SM SCT025 BKN050
      TEMPO 1520/1521 2SM SHRA BKN025
     FM152130 29014G22KT P6SM OVC015
     FM160300 34012KT P6SM SKC
     FM161400 05015G25KT P6SM SCT025 BKN040=

Latest METAR

870
SAUS80 KWBC 160700
MTRJAX
METAR KJAX 160656Z 33010KT 10SM FEW023 BKN250 08/04 A3005 RMK AO2 SLP177
T00830044


USA.gov is the U.S. government's official web portal to all federal, state and local government web resources and services.